Time;durP1;ratioP1;P1;durP2;ratioP2;P2;SDS_P1;SDS_P2;PMS_P1;PMS_P2;Temp;Humidity;BMP_temperature;BMP_pressure;BME280_temperature;BME280_humidity;BME280_pressure;Samples;Min_cycle;Max_cycle;Signal;HPM_P1;HPM_P2
2022/05/07 00:00:49;;;;;;;2.90;2.60;;;10.60;99.90;;;;;;5071899;28;20229;-52
2022/05/07 00:03:17;;;;;;;6.03;2.93;;;10.60;99.90;;;;;;5071855;28;20205;-52
2022/05/07 00:05:45;;;;;;;4.77;2.73;;;10.50;99.90;;;;;;5072281;28;20270;-52
2022/05/07 00:08:13;;;;;;;2.53;2.30;;;10.50;99.90;;;;;;5071944;28;20278;-52
2022/05/07 00:10:43;;;;;;;3.30;2.67;;;10.40;99.90;;;;;;5061387;28;20220;-52
2022/05/07 00:13:11;;;;;;;4.37;2.87;;;10.40;99.90;;;;;;5071674;28;20216;-52
2022/05/07 00:15:39;;;;;;;3.30;2.97;;;10.30;99.90;;;;;;5071832;28;20322;-52
2022/05/07 00:18:10;;;;;;;5.07;2.80;;;10.30;99.90;;;;;;5071922;28;20398;-52
2022/05/07 00:20:39;;;;;;;5.43;2.90;;;10.30;99.90;;;;;;5071951;28;20216;-52
2022/05/07 00:23:07;;;;;;;5.20;3.10;;;10.30;99.90;;;;;;5071201;28;20197;-52
2022/05/07 00:25:35;;;;;;;3.83;3.03;;;10.30;99.90;;;;;;5070136;28;20247;-52
2022/05/07 00:28:03;;;;;;;3.27;2.50;;;10.30;99.90;;;;;;5071028;28;20254;-52
2022/05/07 00:30:31;;;;;;;5.13;2.97;;;10.30;99.90;;;;;;5071526;28;20304;-52
2022/05/07 00:32:59;;;;;;;6.00;2.77;;;10.20;99.90;;;;;;5071218;28;20236;-52
2022/05/07 00:35:28;;;;;;;3.90;2.83;;;10.20;99.90;;;;;;5071254;28;20631;-52
2022/05/07 00:37:56;;;;;;;3.80;3.00;;;10.10;99.90;;;;;;5071651;28;20312;-52
2022/05/07 00:40:25;;;;;;;4.27;3.03;;;10.10;99.90;;;;;;5070612;28;20715;-52
2022/05/07 00:42:53;;;;;;;5.00;3.00;;;10.10;99.90;;;;;;5071096;28;20254;-52
2022/05/07 00:45:21;;;;;;;5.97;3.00;;;10.10;99.90;;;;;;5071503;28;20196;-52
2022/05/07 00:47:50;;;;;;;3.07;2.77;;;10.10;99.90;;;;;;5071032;28;20248;-52
2022/05/07 00:53:05;;;;;;;4.37;2.70;;;10.10;99.90;;;;;;5070663;28;20207;-52
2022/05/07 00:55:35;;;;;;;4.13;3.20;;;10.00;99.90;;;;;;5071281;28;20627;-52
2022/05/07 00:58:03;;;;;;;4.67;3.13;;;10.00;99.90;;;;;;5071066;28;20224;-52
2022/05/07 01:00:31;;;;;;;6.53;3.10;;;9.90;99.90;;;;;;5070964;28;20252;-52
2022/05/07 01:03:00;;;;;;;3.23;2.93;;;9.90;99.90;;;;;;5070425;28;20207;-55
2022/05/07 01:05:28;;;;;;;6.10;3.17;;;9.90;99.90;;;;;;5070136;28;20224;-52
2022/05/07 01:07:57;;;;;;;3.53;3.13;;;9.90;99.90;;;;;;5071241;28;20228;-52
2022/05/07 01:10:27;;;;;;;5.17;2.53;;;9.90;99.90;;;;;;5060263;28;20232;-52
2022/05/07 01:12:56;;;;;;;3.33;3.03;;;9.80;99.90;;;;;;5070566;28;20212;-52
2022/05/07 01:15:24;;;;;;;4.30;3.27;;;9.80;99.90;;;;;;5071340;28;20627;-52
2022/05/07 01:17:52;;;;;;;4.73;3.30;;;9.80;99.90;;;;;;5070966;28;20302;-52
2022/05/07 01:20:20;;;;;;;4.17;3.10;;;9.80;99.90;;;;;;5071266;28;20209;-52
2022/05/07 01:22:50;;;;;;;5.17;3.10;;;9.70;99.90;;;;;;5070251;28;20225;-52
2022/05/07 01:25:19;;;;;;;4.77;3.03;;;9.70;99.90;;;;;;5070165;28;20270;-52
2022/05/07 01:27:47;;;;;;;4.23;3.00;;;9.70;99.90;;;;;;5070243;28;20266;-52
2022/05/07 01:30:15;;;;;;;4.63;3.13;;;9.60;99.90;;;;;;5070654;28;20212;-52
2022/05/07 01:32:43;;;;;;;3.20;2.90;;;9.60;99.90;;;;;;5070253;28;20225;-52
2022/05/07 01:35:11;;;;;;;5.30;3.43;;;9.60;99.90;;;;;;5070526;28;20239;-52
2022/05/07 01:37:39;;;;;;;6.27;3.63;;;9.60;99.90;;;;;;5070264;28;20770;-52
2022/05/07 01:40:11;;;;;;;3.60;3.13;;;9.60;99.90;;;;;;5070756;28;20255;-52
2022/05/07 01:42:39;;;;;;;7.10;3.60;;;9.50;99.90;;;;;;5070129;28;20207;-52
2022/05/07 01:45:08;;;;;;;6.27;3.63;;;9.50;99.90;;;;;;5070499;28;20602;-52
2022/05/07 01:50:23;;;;;;;5.00;3.57;;;9.50;99.90;;;;;;5071040;28;20625;-52
2022/05/07 01:52:51;;;;;;;4.57;3.60;;;9.50;99.90;;;;;;5069909;28;20220;-52
2022/05/07 01:55:21;;;;;;;3.80;3.03;;;9.50;99.90;;;;;;5070579;28;20212;-51
2022/05/07 01:57:49;;;;;;;5.07;3.30;;;9.50;99.90;;;;;;5070783;28;20256;-52
2022/05/07 02:00:17;;;;;;;3.90;3.47;;;9.50;99.90;;;;;;5070576;28;20236;-52
2022/05/07 02:02:45;;;;;;;4.33;3.17;;;9.40;99.90;;;;;;5069987;28;20240;-52
2022/05/07 02:05:13;;;;;;;4.27;3.23;;;9.40;99.90;;;;;;5070214;28;20209;-52
2022/05/07 02:07:41;;;;;;;4.60;3.50;;;9.40;99.90;;;;;;5070201;28;20748;-52
2022/05/07 02:10:10;;;;;;;4.57;3.43;;;9.30;99.90;;;;;;5059794;28;20285;-52
2022/05/07 02:12:39;;;;;;;8.77;4.00;;;9.30;99.90;;;;;;5069835;28;20217;-52
2022/05/07 02:15:08;;;;;;;6.53;3.77;;;9.30;99.90;;;;;;5070188;28;20232;-52
2022/05/07 02:17:36;;;;;;;5.17;3.80;;;9.20;99.90;;;;;;5070815;28;20263;-52
2022/05/07 02:20:05;;;;;;;4.40;3.93;;;9.20;99.90;;;;;;5070274;28;20240;-52
2022/05/07 02:22:33;;;;;;;4.20;3.50;;;9.30;99.90;;;;;;5070269;28;20250;-52
2022/05/07 02:25:01;;;;;;;4.87;3.80;;;9.30;99.90;;;;;;5070708;28;20239;-52
2022/05/07 02:27:29;;;;;;;5.03;3.70;;;9.30;99.90;;;;;;5070180;28;20718;-52
2022/05/07 02:29:59;;;;;;;4.60;3.60;;;9.20;99.90;;;;;;5070136;28;20209;-52
2022/05/07 02:32:28;;;;;;;5.47;3.60;;;9.20;99.90;;;;;;5069512;28;20225;-52
2022/05/07 02:34:56;;;;;;;5.57;3.60;;;9.20;99.90;;;;;;5068126;28;20301;-52
2022/05/07 02:37:24;;;;;;;7.17;4.50;;;9.20;99.90;;;;;;5070175;28;20257;-53
2022/05/07 02:39:53;;;;;;;5.30;3.70;;;9.20;99.90;;;;;;5070020;28;20705;-52
2022/05/07 02:42:36;;;;;;;4.50;3.60;;;9.20;99.90;;;;;;5068951;28;20300;-52
2022/05/07 02:45:08;;;;;;;3.63;3.33;;;9.20;99.90;;;;;;5070105;28;20231;-52
2022/05/07 02:47:38;;;;;;;5.90;3.70;;;9.20;99.90;;;;;;5070338;28;20271;-52
2022/05/07 02:50:07;;;;;;;4.50;3.97;;;9.10;99.90;;;;;;5073760;28;20207;-52
2022/05/07 02:52:36;;;;;;;7.17;4.10;;;9.10;99.90;;;;;;5072938;28;20252;-53
2022/05/07 02:55:06;;;;;;;5.60;4.40;;;9.10;99.90;;;;;;5073357;28;20236;-52
2022/05/07 02:57:34;;;;;;;4.73;3.83;;;9.10;99.90;;;;;;5073909;28;20229;-52
2022/05/07 03:00:04;;;;;;;5.33;3.70;;;9.10;99.90;;;;;;5073675;28;20633;-52
2022/05/07 03:02:33;;;;;;;6.30;4.00;;;9.00;99.90;;;;;;5072818;28;20587;-52
2022/05/07 03:05:01;;;;;;;4.60;3.83;;;9.00;99.90;;;;;;5073211;28;20212;-52
2022/05/07 03:07:29;;;;;;;6.03;4.23;;;9.00;99.90;;;;;;5073118;28;20288;-52
2022/05/07 03:09:57;;;;;;;6.00;4.10;;;9.00;99.90;;;;;;5073461;28;20291;-52
2022/05/07 03:12:27;;;;;;;5.17;4.13;;;9.00;99.90;;;;;;5072493;28;20260;-52
2022/05/07 03:14:55;;;;;;;5.47;4.00;;;9.00;99.90;;;;;;5073263;28;20201;-52
2022/05/07 03:17:26;;;;;;;8.93;4.53;;;8.90;99.90;;;;;;5073408;28;20233;-52
2022/05/07 03:19:55;;;;;;;8.77;4.67;;;8.90;99.90;;;;;;5073034;28;20591;-53
2022/05/07 03:22:24;;;;;;;6.27;4.53;;;8.90;99.90;;;;;;5072714;28;20201;-52
2022/05/07 03:24:52;;;;;;;6.07;4.60;;;8.90;99.90;;;;;;5073058;28;20236;-52
2022/05/07 03:27:20;;;;;;;7.60;5.00;;;8.90;99.90;;;;;;5072959;28;20225;-52
2022/05/07 03:29:48;;;;;;;6.87;5.17;;;8.90;99.90;;;;;;5073192;28;20238;-52
2022/05/07 03:32:16;;;;;;;9.03;4.53;;;8.90;99.90;;;;;;5071995;28;20262;-52
2022/05/07 03:34:44;;;;;;;5.17;4.57;;;8.90;99.90;;;;;;5071910;28;20263;-52
2022/05/07 03:37:14;;;;;;;8.40;4.60;;;8.80;99.90;;;;;;5071545;28;20252;-51
2022/05/07 03:39:42;;;;;;;7.67;4.27;;;8.90;99.90;;;;;;5071870;28;20263;-52
2022/05/07 03:42:10;;;;;;;8.00;4.57;;;8.90;99.90;;;;;;5070469;28;20266;-52
2022/05/07 03:44:38;;;;;;;5.67;4.37;;;8.90;99.90;;;;;;5072047;28;20201;-52
2022/05/07 03:47:06;;;;;;;6.90;5.07;;;8.90;99.90;;;;;;5067797;28;20225;-52
2022/05/07 03:49:34;;;;;;;7.07;4.63;;;8.80;99.90;;;;;;5071738;28;20253;-53
2022/05/07 03:54:58;;;;;;;7.60;5.37;;;8.90;99.90;;;;;;5032384;28;20303;-52
2022/05/07 03:57:26;;;;;;;7.23;5.00;;;8.90;99.90;;;;;;5067605;28;20259;-52
2022/05/07 03:59:55;;;;;;;7.07;5.10;;;8.90;99.90;;;;;;5067313;28;20209;-52
2022/05/07 04:02:24;;;;;;;6.97;5.23;;;8.90;99.90;;;;;;5067414;28;20284;-52
2022/05/07 04:04:52;;;;;;;7.67;5.03;;;8.90;99.90;;;;;;5066569;28;20207;-52
2022/05/07 04:07:20;;;;;;;6.67;4.97;;;8.90;99.90;;;;;;5069833;28;20761;-52
2022/05/07 04:09:51;;;;;;;6.20;4.77;;;8.90;99.90;;;;;;5071609;28;20209;-52
2022/05/07 04:12:21;;;;;;;8.67;4.90;;;9.00;99.90;;;;;;5071880;28;20252;-52
2022/05/07 04:14:49;;;;;;;6.17;4.80;;;9.00;99.90;;;;;;5072360;28;20205;-52
2022/05/07 04:17:17;;;;;;;6.20;4.57;;;9.10;99.90;;;;;;5071918;28;20256;-52
2022/05/07 04:19:45;;;;;;;7.07;5.43;;;9.10;99.90;;;;;;5071301;28;20212;-52
2022/05/07 04:22:13;;;;;;;5.73;5.03;;;9.10;99.90;;;;;;5071561;28;20204;-52
2022/05/07 04:24:44;;;;;;;8.27;5.47;;;9.20;99.90;;;;;;5071692;28;20662;-52
2022/05/07 04:27:12;;;;;;;7.40;5.10;;;9.30;99.90;;;;;;5071765;28;20261;-52
2022/05/07 04:29:41;;;;;;;6.60;5.07;;;9.60;99.90;;;;;;5072129;28;20240;-52
2022/05/07 04:32:09;;;;;;;6.37;4.90;;;9.90;99.90;;;;;;5071000;28;20686;-52
2022/05/07 04:34:37;;;;;;;5.37;4.77;;;10.20;99.90;;;;;;5071634;28;20200;-52
2022/05/07 04:37:06;;;;;;;6.20;4.77;;;10.50;99.90;;;;;;5072024;28;20294;-53
2022/05/07 04:39:34;;;;;;;6.57;5.03;;;10.80;99.90;;;;;;5071680;28;20232;-52
2022/05/07 04:42:02;;;;;;;6.40;4.67;;;11.00;99.90;;;;;;5070181;28;20212;-52
2022/05/07 04:44:30;;;;;;;5.80;4.40;;;11.00;99.90;;;;;;5071096;28;20213;-52
2022/05/07 04:47:00;;;;;;;5.50;4.77;;;11.20;99.90;;;;;;5071563;28;20467;-52
2022/05/07 04:49:28;;;;;;;7.50;5.10;;;11.50;99.90;;;;;;5071476;28;20254;-52
2022/05/07 04:51:56;;;;;;;5.80;4.53;;;11.80;99.90;;;;;;5050983;28;20237;-53
2022/05/07 04:54:24;;;;;;;6.37;4.40;;;12.10;99.90;;;;;;5051430;28;20264;-52
2022/05/07 04:56:53;;;;;;;5.43;4.30;;;12.60;99.90;;;;;;5051142;28;20256;-53
2022/05/07 04:59:22;;;;;;;5.87;4.40;;;12.80;99.90;;;;;;5051503;28;20236;-53
2022/05/07 05:01:50;;;;;;;5.00;4.03;;;13.20;99.90;;;;;;5070246;28;20567;-52
2022/05/07 05:04:19;;;;;;;4.93;4.10;;;13.50;99.90;;;;;;5071400;28;20240;-52
2022/05/07 05:06:47;;;;;;;4.83;4.03;;;13.80;99.90;;;;;;5070879;28;20268;-52
2022/05/07 05:09:15;;;;;;;4.47;3.87;;;13.90;99.90;;;;;;5070675;28;20692;-53
2022/05/07 05:11:43;;;;;;;5.50;3.87;;;14.20;99.90;;;;;;5067392;28;20200;-53
2022/05/07 05:16:57;;;;;;;5.10;3.58;;;14.70;99.90;;;;;;5070329;28;20282;-52
2022/05/07 05:19:26;;;;;;;4.18;3.50;;;15.00;99.90;;;;;;5070493;28;20215;-53
2022/05/07 05:21:54;;;;;;;4.25;3.75;;;15.20;99.90;;;;;;5062004;28;20273;-52
2022/05/07 05:24:23;;;;;;;5.25;3.70;;;15.40;99.90;;;;;;5065495;28;20674;-52
2022/05/07 05:26:51;;;;;;;4.47;3.88;;;15.80;99.90;;;;;;5067733;28;20220;-53
2022/05/07 05:29:19;;;;;;;6.20;3.70;;;16.10;99.90;;;;;;5066434;28;20204;-52
2022/05/07 05:31:47;;;;;;;5.22;3.78;;;16.40;99.90;;;;;;5068926;28;20205;-53
2022/05/07 05:34:15;;;;;;;4.05;3.45;;;16.60;99.90;;;;;;5069522;28;20304;-53
2022/05/07 05:36:44;;;;;;;5.40;3.22;;;16.90;99.90;;;;;;5069902;28;20316;-53
2022/05/07 05:39:12;;;;;;;5.55;3.40;;;17.00;99.90;;;;;;5069051;28;20224;-53
2022/05/07 05:41:42;;;;;;;4.35;3.08;;;17.10;99.90;;;;;;5067887;28;20204;-52
2022/05/07 05:44:10;;;;;;;5.15;3.35;;;17.10;99.90;;;;;;5068025;28;20201;-53
2022/05/07 05:46:38;;;;;;;3.83;3.35;;;16.70;99.90;;;;;;5068332;28;20224;-52
2022/05/07 05:49:06;;;;;;;4.30;3.60;;;16.60;99.90;;;;;;5066774;28;20743;-53
2022/05/07 05:51:35;;;;;;;4.30;3.42;;;16.60;99.90;;;;;;5069511;28;20231;-52
2022/05/07 05:54:05;;;;;;;6.03;3.60;;;16.80;99.90;;;;;;5065722;28;20252;-53
2022/05/07 05:56:33;;;;;;;5.95;3.90;;;16.90;99.90;;;;;;5068601;28;20232;-52
2022/05/07 05:59:01;;;;;;;4.20;3.60;;;16.80;99.90;;;;;;5068858;28;20213;-51
2022/05/07 06:01:29;;;;;;;4.85;4.10;;;16.50;99.90;;;;;;5057837;28;20241;-53
2022/05/07 06:03:57;;;;;;;5.35;4.07;;;16.80;99.90;;;;;;5050028;28;20236;-53
2022/05/07 06:06:25;;;;;;;5.28;3.90;;;17.60;99.90;;;;;;5055944;28;20219;-52
2022/05/07 06:08:53;;;;;;;6.38;3.85;;;17.90;99.90;;;;;;5069800;28;20726;-53
2022/05/07 06:11:23;;;;;;;6.18;4.28;;;18.10;99.90;;;;;;5069058;28;20260;-53
2022/05/07 06:13:51;;;;;;;4.50;4.10;;;18.30;99.90;;;;;;5061554;28;20244;-52
2022/05/07 06:16:24;;;;;;;7.20;4.45;;;18.50;99.90;;;;;;5070129;28;20231;-53
2022/05/07 06:18:52;;;;;;;6.75;4.18;;;18.80;99.90;;;;;;5069541;28;20686;-52
2022/05/07 06:21:20;;;;;;;6.40;4.57;;;19.10;99.90;;;;;;5069796;28;20290;-53
2022/05/07 06:23:48;;;;;;;6.25;4.85;;;19.20;99.90;;;;;;5072035;28;20691;-53
2022/05/07 06:29:03;;;;;;;7.82;4.72;;;19.40;99.90;;;;;;5073274;28;20673;-53
2022/05/07 06:31:31;;;;;;;12.70;4.88;;;19.50;99.90;;;;;;5069718;28;20278;-53
2022/05/07 06:33:59;;;;;;;6.22;4.68;;;19.70;99.90;;;;;;5071366;28;20228;-53
2022/05/07 06:36:27;;;;;;;12.20;4.38;;;19.90;99.90;;;;;;5072918;28;20240;-53
2022/05/07 06:38:55;;;;;;;8.88;4.57;;;20.40;99.90;;;;;;5072959;28;20692;-53
2022/05/07 06:41:23;;;;;;;7.15;4.53;;;20.50;99.90;;;;;;5072218;28;20259;-53
2022/05/07 06:43:51;;;;;;;5.72;4.50;;;20.90;99.90;;;;;;5071067;28;20205;-53
2022/05/07 06:46:21;;;;;;;6.85;4.70;;;20.70;99.90;;;;;;5073254;28;20288;-53
2022/05/07 06:48:50;;;;;;;7.40;4.60;;;20.60;99.90;;;;;;5072981;28;20209;-53
2022/05/07 06:51:18;;;;;;;4.60;4.07;;;20.70;99.90;;;;;;5072758;28;20209;-53
2022/05/07 06:53:46;;;;;;;5.97;4.15;;;21.00;99.90;;;;;;5072279;28;20262;-53
2022/05/07 06:56:14;;;;;;;6.00;4.43;;;21.10;99.90;;;;;;5063097;28;20637;-53
2022/05/07 06:58:42;;;;;;;4.68;4.28;;;21.10;99.90;;;;;;5068884;28;20225;-53
2022/05/07 07:01:10;;;;;;;5.90;4.10;;;21.50;99.90;;;;;;5070889;28;20204;-53
2022/05/07 07:03:39;;;;;;;4.22;3.67;;;21.60;99.90;;;;;;5065901;28;20237;-53
2022/05/07 07:06:08;;;;;;;4.38;3.92;;;21.60;99.90;;;;;;5063645;28;20241;-53
2022/05/07 07:08:36;;;;;;;4.65;4.25;;;21.60;99.90;;;;;;5069544;28;20236;-53
2022/05/07 07:11:04;;;;;;;4.82;4.22;;;21.90;99.90;;;;;;5071314;28;20262;-52
2022/05/07 07:13:32;;;;;;;6.88;4.43;;;22.10;99.90;;;;;;5070840;28;20232;-53
2022/05/07 07:16:00;;;;;;;6.10;4.60;;;22.00;99.90;;;;;;5070947;28;20316;-53
2022/05/07 07:18:28;;;;;;;8.93;6.22;;;22.20;99.90;;;;;;5064896;28;20248;-53
2022/05/07 07:20:57;;;;;;;9.05;6.53;;;22.50;99.90;;;;;;5067490;28;20205;-53
2022/05/07 07:23:26;;;;;;;9.13;7.60;;;22.60;99.90;;;;;;5067391;28;20204;-53
2022/05/07 07:25:54;;;;;;;10.18;7.95;;;22.70;99.90;;;;;;5068651;28;20262;-53
2022/05/07 07:28:22;;;;;;;10.75;9.02;;;22.70;99.90;;;;;;5068537;28;20225;-54
2022/05/07 07:30:51;;;;;;;11.05;8.85;;;22.90;99.90;;;;;;5065541;28;20232;-53
2022/05/07 07:33:19;;;;;;;14.20;11.40;;;23.00;99.90;;;;;;5064091;28;20209;-54
2022/05/07 07:35:47;;;;;;;14.07;10.55;;;23.10;99.90;;;;;;5068168;28;20275;-53
2022/05/07 07:38:16;;;;;;;13.32;10.48;;;23.30;99.90;;;;;;5068842;28;20256;-54
2022/05/07 07:40:49;;;;;;;13.68;10.82;;;23.40;99.90;;;;;;5068450;28;20205;-54
2022/05/07 07:43:18;;;;;;;15.25;11.80;;;23.60;99.90;;;;;;5064854;28;20706;-53
2022/05/07 07:48:44;;;;;;;13.85;10.38;;;23.60;99.60;;;;;;5001553;28;20287;-53
2022/05/07 07:51:13;;;;;;;13.68;10.52;;;23.60;98.90;;;;;;5052052;28;20200;-54
2022/05/07 07:53:44;;;;;;;13.45;10.93;;;23.90;97.80;;;;;;5067873;28;20213;-54
2022/05/07 07:56:12;;;;;;;14.60;10.70;;;24.00;99.40;;;;;;5066463;28;20224;-54
2022/05/07 07:58:40;;;;;;;12.68;9.88;;;23.90;95.80;;;;;;5068655;28;20922;-53
2022/05/07 08:01:08;;;;;;;11.50;9.07;;;23.90;98.60;;;;;;5068990;28;20209;-53
2022/05/07 08:03:36;;;;;;;10.88;7.38;;;23.60;97.60;;;;;;5068657;28;20205;-54
2022/05/07 08:06:04;;;;;;;12.52;7.75;;;23.00;95.10;;;;;;5068876;28;20209;-53
2022/05/07 08:14:06;;;;;;;12.25;7.97;;;23.00;97.20;;;;;;5068256;28;20613;-54
2022/05/07 08:16:35;;;;;;;9.90;7.82;;;22.90;97.30;;;;;;5069942;28;20298;-53
2022/05/07 08:19:04;;;;;;;12.73;8.50;;;22.90;98.10;;;;;;5066469;28;20204;-54
2022/05/07 08:21:32;;;;;;;12.75;7.57;;;23.00;98.70;;;;;;5066739;28;20258;-52
2022/05/07 08:24:00;;;;;;;11.70;6.47;;;23.10;98.10;;;;;;5068569;28;20212;-53
2022/05/07 08:26:29;;;;;;;9.27;8.07;;;23.00;96.10;;;;;;5070816;28;20233;-53
2022/05/07 08:28:58;;;;;;;12.13;9.20;;;23.10;94.10;;;;;;5067739;28;20240;-52
2022/05/07 08:31:26;;;;;;;14.43;10.25;;;23.20;95.50;;;;;;5068681;28;20246;-53
2022/05/07 08:33:55;;;;;;;15.48;9.80;;;23.30;95.20;;;;;;5068130;28;20204;-52
2022/05/07 08:36:23;;;;;;;14.10;10.10;;;23.30;94.90;;;;;;5070482;28;20239;-52
2022/05/07 08:38:51;;;;;;;13.32;11.10;;;23.30;95.00;;;;;;5070052;28;20201;-52
2022/05/07 08:41:20;;;;;;;13.27;11.18;;;23.50;94.60;;;;;;5069501;28;20224;-52
2022/05/07 08:43:50;;;;;;;11.82;10.05;;;23.60;94.50;;;;;;5068468;28;20204;-52
2022/05/07 08:46:19;;;;;;;12.82;10.25;;;23.50;93.40;;;;;;5061887;28;20209;-53
2022/05/07 08:48:50;;;;;;;11.68;9.52;;;23.70;95.60;;;;;;5067985;28;20223;-52
2022/05/07 08:51:21;;;;;;;13.82;9.93;;;23.90;96.50;;;;;;5065598;28;20303;-52
2022/05/07 08:53:53;;;;;;;12.10;9.93;;;23.90;96.90;;;;;;5069318;28;20232;-52
2022/05/07 08:56:22;;;;;;;13.27;10.70;;;23.90;93.50;;;;;;5070110;28;20671;-52
2022/05/07 08:58:53;;;;;;;13.85;12.38;;;23.90;95.80;;;;;;5070168;28;20209;-53
2022/05/07 09:01:23;;;;;;;14.77;11.00;;;23.70;93.90;;;;;;5066703;28;20666;-53
2022/05/07 09:03:51;;;;;;;13.57;11.43;;;23.70;94.80;;;;;;5068708;28;20213;-52
2022/05/07 09:06:22;;;;;;;15.43;13.15;;;23.90;95.60;;;;;;5069499;28;20278;-53
2022/05/07 09:08:51;;;;;;;21.13;15.02;;;24.00;95.10;;;;;;5070325;28;20554;-52
2022/05/07 09:11:20;;;;;;;15.40;12.48;;;23.90;93.90;;;;;;5068293;28;20330;-53
2022/05/07 09:14:01;;;;;;;29.70;15.20;;;23.80;92.90;;;;;;5066267;28;20207;-52
2022/05/07 09:16:39;;;;;;;20.17;14.25;;;24.10;95.60;;;;;;5064830;28;20224;-54
2022/05/07 09:19:19;;;;;;;40.35;20.73;;;24.20;96.10;;;;;;5067811;28;20223;-53
2022/05/07 09:21:48;;;;;;;15.02;12.98;;;24.10;92.80;;;;;;5069681;28;20205;-53
2022/05/07 09:24:17;;;;;;;15.32;13.73;;;23.90;93.40;;;;;;5069972;28;20226;-53
2022/05/07 09:26:47;;;;;;;16.45;13.95;;;24.00;94.00;;;;;;5064594;28;20225;-53
2022/05/07 09:29:18;;;;;;;17.08;14.20;;;24.10;94.50;;;;;;5069392;28;20250;-53
2022/05/07 09:31:48;;;;;;;16.40;13.30;;;23.90;93.60;;;;;;5069358;28;20274;-53
2022/05/07 09:37:14;;;;;;;18.55;14.48;;;23.40;93.70;;;;;;5067137;28;20286;-53
2022/05/07 09:39:46;;;;;;;18.17;14.10;;;23.10;93.50;;;;;;5069043;28;20239;-53
2022/05/07 09:42:16;;;;;;;18.58;14.63;;;23.00;93.60;;;;;;5069240;28;20270;-53
2022/05/07 09:44:46;;;;;;;19.27;13.93;;;23.10;92.50;;;;;;5069393;28;20681;-53
2022/05/07 09:47:15;;;;;;;31.27;14.82;;;23.10;94.60;;;;;;5067649;28;20258;-53
2022/05/07 09:50:20;;;;;;;30.80;14.98;;;23.30;94.80;;;;;;5065063;28;20226;-53
2022/05/07 09:52:32;;;;;;;21.55;14.00;;;23.20;96.00;;;;;;5063339;28;20251;-53
2022/05/07 09:57:48;;;;;;;14.80;12.95;;;23.50;94.70;;;;;;5069468;28;20286;-53
2022/05/07 10:00:21;;;;;;;14.13;12.63;;;23.60;93.00;;;;;;5071922;28;20592;-53
2022/05/07 10:03:08;;;;;;;17.17;13.07;;;23.90;93.20;;;;;;5069740;28;20229;-53
2022/05/07 10:05:56;;;;;;;15.95;12.48;;;23.90;93.20;;;;;;5070561;28;20217;-53
2022/05/07 10:08:33;;;;;;;14.93;11.10;;;23.80;93.90;;;;;;5071471;28;20278;-54
2022/05/07 10:11:03;;;;;;;13.65;11.70;;;23.80;95.40;;;;;;5064490;28;20593;-53
2022/05/07 10:13:32;;;;;;;12.95;11.23;;;24.10;95.10;;;;;;5070727;28;20209;-53
2022/05/07 10:16:03;;;;;;;13.60;11.43;;;23.90;95.80;;;;;;5072612;28;20302;-53
2022/05/07 10:18:36;;;;;;;14.00;11.27;;;23.80;94.10;;;;;;5072987;28;20282;-53
2022/05/07 10:21:14;;;;;;;10.80;9.70;;;23.80;94.10;;;;;;5071639;28;20209;-53
2022/05/07 10:23:50;;;;;;;14.00;12.40;;;23.80;93.30;;;;;;5071361;28;20215;-53
2022/05/07 10:26:19;;;;;;;11.75;10.52;;;23.60;92.10;;;;;;5073654;28;20201;-53
2022/05/07 10:28:47;;;;;;;13.32;11.93;;;23.50;93.20;;;;;;5072182;28;20209;-53
2022/05/07 10:31:21;;;;;;;13.88;11.63;;;23.60;92.70;;;;;;5073336;28;20297;-53
2022/05/07 10:33:50;;;;;;;14.90;11.98;;;23.50;92.90;;;;;;5072368;28;20201;-53
2022/05/07 10:36:19;;;;;;;12.02;10.80;;;23.40;93.50;;;;;;5072932;28;20217;-53
2022/05/07 10:38:49;;;;;;;11.75;10.52;;;23.40;93.60;;;;;;5077442;28;20252;-54
2022/05/07 10:41:24;;;;;;;12.27;10.98;;;23.50;94.60;;;;;;5072648;28;20251;-53
2022/05/07 10:44:05;;;;;;;13.00;10.88;;;23.80;94.60;;;;;;5072571;28;20212;-53
2022/05/07 10:46:43;;;;;;;14.05;12.25;;;24.00;94.70;;;;;;5072667;28;20670;-53
2022/05/07 10:49:12;;;;;;;12.43;11.13;;;24.00;92.80;;;;;;5072629;28;20214;-53
2022/05/07 10:51:50;;;;;;;13.63;10.63;;;23.90;92.80;;;;;;5072119;28;20209;-53
2022/05/07 10:54:21;;;;;;;11.75;10.07;;;24.10;94.00;;;;;;5073131;28;20603;-53
2022/05/07 10:56:51;;;;;;;14.73;10.02;;;24.20;93.10;;;;;;5072283;28;20268;-51
2022/05/07 10:59:21;;;;;;;11.88;9.30;;;24.20;91.70;;;;;;5072049;28;20267;-51
2022/05/07 11:01:51;;;;;;;12.43;9.60;;;24.20;92.40;;;;;;5072991;28;20275;-51
2022/05/07 11:04:21;;;;;;;13.18;10.15;;;24.10;92.70;;;;;;5072288;28;20209;-51
2022/05/07 11:06:51;;;;;;;12.38;9.48;;;23.90;91.90;;;;;;5072367;28;20274;-51
2022/05/07 11:09:21;;;;;;;9.75;8.15;;;24.00;92.20;;;;;;5070481;28;20233;-51
2022/05/07 11:11:52;;;;;;;10.98;7.70;;;23.70;92.90;;;;;;5065200;28;20607;-52
2022/05/07 11:14:22;;;;;;;7.93;6.90;;;23.80;92.00;;;;;;5069927;28;20225;-52
2022/05/07 11:16:53;;;;;;;8.25;7.00;;;23.90;91.50;;;;;;5070789;28;20260;-52
2022/05/07 11:19:25;;;;;;;7.50;6.80;;;23.90;90.50;;;;;;5070830;28;20205;-52
2022/05/07 11:21:54;;;;;;;9.35;7.80;;;23.80;90.70;;;;;;5070522;28;20212;-51
2022/05/07 11:24:24;;;;;;;11.10;7.30;;;23.70;91.30;;;;;;5071929;28;20267;-51
2022/05/07 11:26:53;;;;;;;9.07;7.47;;;23.30;91.20;;;;;;5072132;28;20225;-51
2022/05/07 11:29:22;;;;;;;12.32;8.25;;;23.30;92.90;;;;;;5070497;28;20217;-52
2022/05/07 11:32:00;;;;;;;7.63;6.07;;;23.20;92.30;;;;;;5069626;28;20201;-51
2022/05/07 11:34:33;;;;;;;10.27;6.60;;;23.10;92.00;;;;;;5070656;28;20262;-51
2022/05/07 11:37:12;;;;;;;10.07;7.47;;;23.00;92.60;;;;;;5070691;28;20243;-51
2022/05/07 11:39:51;;;;;;;11.20;9.20;;;22.90;93.40;;;;;;5068777;28;20209;-51
2022/05/07 11:42:34;;;;;;;12.45;9.82;;;22.60;93.80;;;;;;5068347;28;20205;-53
2022/05/07 11:45:27;;;;;;;10.27;9.18;;;22.40;94.60;;;;;;5065913;28;20205;-53
2022/05/07 11:48:00;;;;;;;13.02;8.43;;;22.20;95.60;;;;;;5070928;28;20224;-53
2022/05/07 11:50:29;;;;;;;8.20;7.30;;;21.90;96.40;;;;;;5071377;28;20209;-53
2022/05/07 11:53:09;;;;;;;8.75;7.40;;;21.80;96.30;;;;;;5070255;28;20202;-53
2022/05/07 11:55:37;;;;;;;8.00;6.72;;;21.70;97.30;;;;;;5067825;28;20208;-52
2022/05/07 11:58:13;;;;;;;9.70;6.63;;;21.60;97.20;;;;;;5066704;28;20294;-53
2022/05/07 12:00:42;;;;;;;8.40;6.65;;;21.60;97.30;;;;;;5067025;28;20258;-53
2022/05/07 12:03:12;;;;;;;7.72;6.93;;;21.60;97.90;;;;;;5069978;28;20302;-54
2022/05/07 12:05:41;;;;;;;10.02;6.45;;;21.60;98.70;;;;;;5069752;28;20212;-53
2022/05/07 12:08:14;;;;;;;9.45;7.22;;;21.70;98.90;;;;;;5070622;28;20229;-53
2022/05/07 12:10:43;;;;;;;12.77;10.60;;;21.80;99.60;;;;;;5070233;28;20213;-53
2022/05/07 12:13:11;;;;;;;12.02;9.40;;;21.80;98.80;;;;;;5070063;28;20224;-53
2022/05/07 12:18:32;;;;;;;11.13;9.40;;;21.90;98.90;;;;;;5069752;28;20228;-53
2022/05/07 12:21:00;;;;;;;11.57;7.93;;;21.90;97.40;;;;;;5068970;28;20255;-53
2022/05/07 12:31:46;;;;;;;4.50;3.55;;;21.90;94.30;;;;;;5069361;28;20233;-53
2022/05/07 12:34:16;;;;;;;4.68;3.15;;;21.70;94.40;;;;;;5069406;28;20204;-53
2022/05/07 12:36:44;;;;;;;4.95;3.42;;;21.60;95.00;;;;;;5066625;28;20315;-53
2022/05/07 12:39:12;;;;;;;5.15;3.67;;;21.60;95.90;;;;;;5070437;28;20205;-53
2022/05/07 12:41:42;;;;;;;6.55;3.80;;;21.60;96.90;;;;;;5069830;28;20208;-52
2022/05/07 12:44:11;;;;;;;5.97;4.53;;;21.60;97.70;;;;;;5070108;28;20213;-53
2022/05/07 12:46:40;;;;;;;6.22;3.97;;;21.50;99.10;;;;;;5064463;28;20209;-53
2022/05/07 12:49:09;;;;;;;5.55;4.32;;;21.60;99.90;;;;;;5059579;28;20241;-53
2022/05/07 12:51:38;;;;;;;6.47;4.25;;;21.80;99.90;;;;;;5064301;28;20205;-53
2022/05/07 12:54:06;;;;;;;8.27;4.55;;;21.80;99.90;;;;;;5068488;28;20213;-53
2022/05/07 12:56:35;;;;;;;7.32;4.60;;;21.90;99.90;;;;;;5067871;28;20228;-53
2022/05/07 12:59:03;;;;;;;6.75;4.95;;;21.90;99.90;;;;;;5064921;28;20209;-54
2022/05/07 13:01:31;;;;;;;5.70;4.88;;;21.90;99.90;;;;;;5070094;28;20232;-53
2022/05/07 13:03:59;;;;;;;6.95;5.20;;;21.80;99.90;;;;;;5068626;28;20282;-53
2022/05/07 13:06:28;;;;;;;9.93;6.53;;;21.70;99.90;;;;;;5068310;28;20216;-53
2022/05/07 13:08:59;;;;;;;5.90;5.25;;;21.50;99.90;;;;;;5067756;28;20237;-53
2022/05/07 13:11:28;;;;;;;7.78;6.22;;;21.60;99.90;;;;;;5069754;28;20258;-53
2022/05/07 13:13:56;;;;;;;8.98;6.03;;;21.70;99.90;;;;;;5066238;28;20255;-53
2022/05/07 13:16:24;;;;;;;8.73;5.70;;;21.60;99.90;;;;;;5069827;28;20240;-53
2022/05/07 13:18:52;;;;;;;8.23;5.55;;;21.60;99.60;;;;;;5070217;28;20225;-54
2022/05/07 13:21:20;;;;;;;7.45;5.28;;;21.60;98.50;;;;;;5069250;28;20237;-53
2022/05/07 13:23:48;;;;;;;6.15;4.82;;;21.50;98.90;;;;;;5068679;28;20205;-54
2022/05/07 13:26:18;;;;;;;6.88;5.47;;;21.60;99.10;;;;;;5070455;28;20254;-53
2022/05/07 13:29:06;;;;;;;7.22;4.93;;;21.70;98.70;;;;;;5070165;28;20219;-53
2022/05/07 13:31:35;;;;;;;7.88;5.15;;;21.80;98.60;;;;;;5069508;28;20236;-53
2022/05/07 13:34:04;;;;;;;8.00;5.57;;;21.80;98.00;;;;;;5069028;28;20213;-54
2022/05/07 13:36:32;;;;;;;6.63;5.82;;;21.90;98.90;;;;;;5069669;28;20235;-54